sensor_id;sensor_type;location;lat;lon;timestamp;P1;durP1;ratioP1;P2;durP2;ratioP2
62861;SDS011;48953;53.110;5.592;2023-09-19T00:01:05;9.30;;;1.80;;
62861;SDS011;48953;53.110;5.592;2023-09-19T00:03:36;8.43;;;1.75;;
62861;SDS011;48953;53.110;5.592;2023-09-19T00:06:02;8.50;;;1.85;;
62861;SDS011;48953;53.110;5.592;2023-09-19T00:08:35;6.63;;;1.40;;
62861;SDS011;48953;53.110;5.592;2023-09-19T00:11:01;7.75;;;1.73;;
62861;SDS011;48953;53.110;5.592;2023-09-19T00:13:28;7.18;;;1.52;;
62861;SDS011;48953;53.110;5.592;2023-09-19T00:15:56;12.02;;;1.77;;
62861;SDS011;48953;53.110;5.592;2023-09-19T00:18:24;8.45;;;2.15;;
62861;SDS011;48953;53.110;5.592;2023-09-19T00:21:00;9.68;;;1.35;;
62861;SDS011;48953;53.110;5.592;2023-09-19T00:23:26;6.60;;;1.50;;
62861;SDS011;48953;53.110;5.592;2023-09-19T00:25:53;12.02;;;1.65;;
62861;SDS011;48953;53.110;5.592;2023-09-19T00:28:22;8.35;;;1.58;;
62861;SDS011;48953;53.110;5.592;2023-09-19T00:30:48;7.18;;;1.55;;
62861;SDS011;48953;53.110;5.592;2023-09-19T00:33:19;8.07;;;1.30;;
62861;SDS011;48953;53.110;5.592;2023-09-19T00:35:49;6.32;;;1.30;;
62861;SDS011;48953;53.110;5.592;2023-09-19T00:38:15;4.45;;;1.35;;
62861;SDS011;48953;53.110;5.592;2023-09-19T00:40:45;4.40;;;1.30;;
62861;SDS011;48953;53.110;5.592;2023-09-19T00:43:11;10.65;;;1.67;;
62861;SDS011;48953;53.110;5.592;2023-09-19T00:45:38;8.82;;;1.67;;
62861;SDS011;48953;53.110;5.592;2023-09-19T00:48:04;5.22;;;1.50;;
62861;SDS011;48953;53.110;5.592;2023-09-19T00:50:34;6.95;;;1.60;;
62861;SDS011;48953;53.110;5.592;2023-09-19T00:53:00;6.80;;;1.58;;
62861;SDS011;48953;53.110;5.592;2023-09-19T00:55:26;5.55;;;1.17;;
62861;SDS011;48953;53.110;5.592;2023-09-19T00:57:55;7.20;;;1.42;;
62861;SDS011;48953;53.110;5.592;2023-09-19T01:00:22;7.97;;;1.10;;
62861;SDS011;48953;53.110;5.592;2023-09-19T01:02:48;4.75;;;1.15;;
62861;SDS011;48953;53.110;5.592;2023-09-19T01:05:15;4.40;;;1.00;;
62861;SDS011;48953;53.110;5.592;2023-09-19T01:07:41;8.70;;;1.25;;
62861;SDS011;48953;53.110;5.592;2023-09-19T01:10:14;6.35;;;1.50;;
62861;SDS011;48953;53.110;5.592;2023-09-19T01:15:21;7.05;;;1.50;;
62861;SDS011;48953;53.110;5.592;2023-09-19T01:17:52;5.13;;;1.40;;
62861;SDS011;48953;53.110;5.592;2023-09-19T01:22:48;6.35;;;1.40;;
62861;SDS011;48953;53.110;5.592;2023-09-19T01:30:37;8.57;;;1.67;;
62861;SDS011;48953;53.110;5.592;2023-09-19T01:33:05;5.13;;;1.08;;
62861;SDS011;48953;53.110;5.592;2023-09-19T01:35:33;5.90;;;1.27;;
62861;SDS011;48953;53.110;5.592;2023-09-19T01:37:59;6.78;;;1.30;;
62861;SDS011;48953;53.110;5.592;2023-09-19T01:40:25;9.70;;;1.73;;
62861;SDS011;48953;53.110;5.592;2023-09-19T01:42:57;7.22;;;1.38;;
62861;SDS011;48953;53.110;5.592;2023-09-19T01:50:53;4.97;;;1.30;;
62861;SDS011;48953;53.110;5.592;2023-09-19T01:53:22;4.53;;;1.13;;
62861;SDS011;48953;53.110;5.592;2023-09-19T01:55:49;5.20;;;1.00;;
62861;SDS011;48953;53.110;5.592;2023-09-19T01:58:18;7.28;;;1.42;;
62861;SDS011;48953;53.110;5.592;2023-09-19T02:00:46;8.60;;;1.30;;
62861;SDS011;48953;53.110;5.592;2023-09-19T02:03:13;5.60;;;1.50;;
62861;SDS011;48953;53.110;5.592;2023-09-19T02:05:41;6.60;;;1.30;;
62861;SDS011;48953;53.110;5.592;2023-09-19T02:08:07;9.77;;;1.42;;
62861;SDS011;48953;53.110;5.592;2023-09-19T02:10:33;13.13;;;1.80;;
62861;SDS011;48953;53.110;5.592;2023-09-19T02:12:59;12.40;;;1.45;;
62861;SDS011;48953;53.110;5.592;2023-09-19T02:15:25;7.68;;;1.38;;
62861;SDS011;48953;53.110;5.592;2023-09-19T02:17:51;4.80;;;1.40;;
62861;SDS011;48953;53.110;5.592;2023-09-19T02:20:18;4.93;;;1.17;;
62861;SDS011;48953;53.110;5.592;2023-09-19T02:22:45;5.38;;;1.60;;
62861;SDS011;48953;53.110;5.592;2023-09-19T02:25:11;5.85;;;1.63;;
62861;SDS011;48953;53.110;5.592;2023-09-19T02:27:39;5.22;;;1.65;;
62861;SDS011;48953;53.110;5.592;2023-09-19T02:30:05;9.13;;;1.15;;
62861;SDS011;48953;53.110;5.592;2023-09-19T02:32:31;10.60;;;1.50;;
62861;SDS011;48953;53.110;5.592;2023-09-19T02:35:00;8.27;;;1.60;;
62861;SDS011;48953;53.110;5.592;2023-09-19T02:37:27;6.82;;;1.30;;
62861;SDS011;48953;53.110;5.592;2023-09-19T02:39:53;9.30;;;1.40;;
62861;SDS011;48953;53.110;5.592;2023-09-19T02:42:19;4.20;;;1.27;;
62861;SDS011;48953;53.110;5.592;2023-09-19T02:44:45;5.30;;;0.93;;
62861;SDS011;48953;53.110;5.592;2023-09-19T02:47:13;6.80;;;2.13;;
62861;SDS011;48953;53.110;5.592;2023-09-19T02:49:40;7.55;;;1.10;;
62861;SDS011;48953;53.110;5.592;2023-09-19T02:52:07;4.82;;;1.38;;
62861;SDS011;48953;53.110;5.592;2023-09-19T02:54:33;6.63;;;1.00;;
62861;SDS011;48953;53.110;5.592;2023-09-19T02:56:59;9.07;;;1.40;;
62861;SDS011;48953;53.110;5.592;2023-09-19T02:59:28;7.75;;;1.20;;
62861;SDS011;48953;53.110;5.592;2023-09-19T03:01:56;6.28;;;1.08;;
62861;SDS011;48953;53.110;5.592;2023-09-19T03:04:22;9.23;;;1.50;;
62861;SDS011;48953;53.110;5.592;2023-09-19T03:06:48;8.63;;;1.00;;
62861;SDS011;48953;53.110;5.592;2023-09-19T03:09:16;7.00;;;1.23;;
62861;SDS011;48953;53.110;5.592;2023-09-19T03:11:42;5.47;;;1.10;;
62861;SDS011;48953;53.110;5.592;2023-09-19T03:14:11;18.20;;;3.05;;
62861;SDS011;48953;53.110;5.592;2023-09-19T03:16:37;9.07;;;1.63;;
62861;SDS011;48953;53.110;5.592;2023-09-19T03:19:03;4.80;;;1.35;;
62861;SDS011;48953;53.110;5.592;2023-09-19T03:21:31;9.32;;;1.70;;
62861;SDS011;48953;53.110;5.592;2023-09-19T03:23:57;7.45;;;1.33;;
62861;SDS011;48953;53.110;5.592;2023-09-19T03:26:23;5.18;;;1.10;;
62861;SDS011;48953;53.110;5.592;2023-09-19T03:28:51;6.97;;;1.50;;
62861;SDS011;48953;53.110;5.592;2023-09-19T03:31:17;6.97;;;1.55;;
62861;SDS011;48953;53.110;5.592;2023-09-19T03:33:43;5.93;;;1.35;;
62861;SDS011;48953;53.110;5.592;2023-09-19T03:36:09;8.68;;;1.75;;
62861;SDS011;48953;53.110;5.592;2023-09-19T03:38:35;7.13;;;1.15;;
62861;SDS011;48953;53.110;5.592;2023-09-19T03:41:01;7.72;;;1.50;;
62861;SDS011;48953;53.110;5.592;2023-09-19T03:43:27;13.30;;;1.67;;
62861;SDS011;48953;53.110;5.592;2023-09-19T03:45:54;8.18;;;1.80;;
62861;SDS011;48953;53.110;5.592;2023-09-19T03:48:19;9.13;;;2.75;;
62861;SDS011;48953;53.110;5.592;2023-09-19T03:50:47;4.85;;;1.23;;
62861;SDS011;48953;53.110;5.592;2023-09-19T03:53:13;8.90;;;1.20;;
62861;SDS011;48953;53.110;5.592;2023-09-19T03:55:39;7.38;;;1.20;;
62861;SDS011;48953;53.110;5.592;2023-09-19T03:58:05;6.90;;;1.55;;
62861;SDS011;48953;53.110;5.592;2023-09-19T04:00:31;7.05;;;1.58;;
62861;SDS011;48953;53.110;5.592;2023-09-19T04:02:59;8.07;;;1.38;;
62861;SDS011;48953;53.110;5.592;2023-09-19T04:05:29;9.90;;;1.65;;
62861;SDS011;48953;53.110;5.592;2023-09-19T04:07:55;3.33;;;1.17;;
62861;SDS011;48953;53.110;5.592;2023-09-19T04:10:21;9.43;;;1.40;;
62861;SDS011;48953;53.110;5.592;2023-09-19T04:12:50;10.40;;;1.30;;
62861;SDS011;48953;53.110;5.592;2023-09-19T04:17:43;4.82;;;1.23;;
62861;SDS011;48953;53.110;5.592;2023-09-19T04:20:09;5.75;;;1.15;;
62861;SDS011;48953;53.110;5.592;2023-09-19T04:22:37;9.80;;;1.77;;
62861;SDS011;48953;53.110;5.592;2023-09-19T04:25:04;8.20;;;1.75;;
62861;SDS011;48953;53.110;5.592;2023-09-19T04:27:32;8.30;;;1.40;;
62861;SDS011;48953;53.110;5.592;2023-09-19T04:29:58;6.85;;;1.25;;
62861;SDS011;48953;53.110;5.592;2023-09-19T04:32:29;6.20;;;1.35;;
62861;SDS011;48953;53.110;5.592;2023-09-19T04:34:57;9.43;;;1.50;;
62861;SDS011;48953;53.110;5.592;2023-09-19T04:37:25;5.65;;;1.73;;
62861;SDS011;48953;53.110;5.592;2023-09-19T04:39:51;7.18;;;1.48;;
62861;SDS011;48953;53.110;5.592;2023-09-19T04:42:17;9.75;;;1.58;;
62861;SDS011;48953;53.110;5.592;2023-09-19T04:44:44;8.10;;;1.45;;
62861;SDS011;48953;53.110;5.592;2023-09-19T04:47:10;3.88;;;0.95;;
62861;SDS011;48953;53.110;5.592;2023-09-19T04:49:37;6.18;;;1.25;;
62861;SDS011;48953;53.110;5.592;2023-09-19T04:52:05;8.15;;;1.35;;
62861;SDS011;48953;53.110;5.592;2023-09-19T04:54:31;12.07;;;1.40;;
62861;SDS011;48953;53.110;5.592;2023-09-19T04:56:59;10.40;;;1.98;;
62861;SDS011;48953;53.110;5.592;2023-09-19T04:59:25;6.22;;;1.10;;
62861;SDS011;48953;53.110;5.592;2023-09-19T05:01:53;8.20;;;1.77;;
62861;SDS011;48953;53.110;5.592;2023-09-19T05:04:19;9.35;;;1.20;;
62861;SDS011;48953;53.110;5.592;2023-09-19T05:06:45;6.30;;;1.10;;
62861;SDS011;48953;53.110;5.592;2023-09-19T05:09:11;8.05;;;1.20;;
62861;SDS011;48953;53.110;5.592;2023-09-19T05:11:38;6.72;;;1.10;;
62861;SDS011;48953;53.110;5.592;2023-09-19T05:14:04;4.97;;;1.23;;
62861;SDS011;48953;53.110;5.592;2023-09-19T05:16:30;9.57;;;1.27;;
62861;SDS011;48953;53.110;5.592;2023-09-19T05:18:57;7.13;;;1.23;;
62861;SDS011;48953;53.110;5.592;2023-09-19T05:21:25;7.60;;;1.65;;
62861;SDS011;48953;53.110;5.592;2023-09-19T05:23:54;9.07;;;1.60;;
62861;SDS011;48953;53.110;5.592;2023-09-19T05:26:20;7.57;;;1.15;;
62861;SDS011;48953;53.110;5.592;2023-09-19T05:28:46;4.22;;;1.50;;
62861;SDS011;48953;53.110;5.592;2023-09-19T05:31:16;6.72;;;1.23;;
62861;SDS011;48953;53.110;5.592;2023-09-19T05:33:42;6.55;;;1.27;;
62861;SDS011;48953;53.110;5.592;2023-09-19T05:36:08;11.93;;;1.75;;
62861;SDS011;48953;53.110;5.592;2023-09-19T05:38:36;10.18;;;1.30;;
62861;SDS011;48953;53.110;5.592;2023-09-19T05:41:05;13.85;;;2.03;;
62861;SDS011;48953;53.110;5.592;2023-09-19T05:43:33;13.65;;;2.88;;
62861;SDS011;48953;53.110;5.592;2023-09-19T05:45:59;5.43;;;1.27;;
62861;SDS011;48953;53.110;5.592;2023-09-19T05:48:26;7.05;;;1.70;;
62861;SDS011;48953;53.110;5.592;2023-09-19T05:50:52;7.88;;;1.50;;
62861;SDS011;48953;53.110;5.592;2023-09-19T05:53:18;3.67;;;1.13;;
62861;SDS011;48953;53.110;5.592;2023-09-19T05:55:44;10.13;;;1.40;;
62861;SDS011;48953;53.110;5.592;2023-09-19T05:58:10;6.90;;;1.10;;
62861;SDS011;48953;53.110;5.592;2023-09-19T06:00:40;9.82;;;1.35;;
62861;SDS011;48953;53.110;5.592;2023-09-19T06:03:07;10.65;;;1.55;;
62861;SDS011;48953;53.110;5.592;2023-09-19T06:05:34;7.40;;;1.20;;
62861;SDS011;48953;53.110;5.592;2023-09-19T06:08:00;7.97;;;1.42;;
62861;SDS011;48953;53.110;5.592;2023-09-19T06:10:32;11.50;;;1.50;;
62861;SDS011;48953;53.110;5.592;2023-09-19T06:12:59;8.30;;;1.35;;
62861;SDS011;48953;53.110;5.592;2023-09-19T06:15:27;7.13;;;1.33;;
62861;SDS011;48953;53.110;5.592;2023-09-19T06:17:53;7.07;;;1.67;;
62861;SDS011;48953;53.110;5.592;2023-09-19T06:20:24;10.88;;;1.67;;
62861;SDS011;48953;53.110;5.592;2023-09-19T06:22:51;8.50;;;1.40;;
62861;SDS011;48953;53.110;5.592;2023-09-19T06:25:17;5.90;;;1.20;;
62861;SDS011;48953;53.110;5.592;2023-09-19T06:27:51;6.93;;;1.63;;
62861;SDS011;48953;53.110;5.592;2023-09-19T06:30:18;7.18;;;1.25;;
62861;SDS011;48953;53.110;5.592;2023-09-19T06:32:45;9.27;;;1.80;;
62861;SDS011;48953;53.110;5.592;2023-09-19T06:35:11;5.75;;;1.38;;
62861;SDS011;48953;53.110;5.592;2023-09-19T06:37:37;7.53;;;1.33;;
62861;SDS011;48953;53.110;5.592;2023-09-19T06:40:13;8.07;;;1.23;;
62861;SDS011;48953;53.110;5.592;2023-09-19T06:42:40;5.70;;;1.25;;
62861;SDS011;48953;53.110;5.592;2023-09-19T06:45:06;6.28;;;1.05;;
62861;SDS011;48953;53.110;5.592;2023-09-19T06:47:32;7.25;;;1.25;;
62861;SDS011;48953;53.110;5.592;2023-09-19T06:49:58;4.93;;;1.15;;
62861;SDS011;48953;53.110;5.592;2023-09-19T06:52:24;9.73;;;1.48;;
62861;SDS011;48953;53.110;5.592;2023-09-19T06:54:52;8.73;;;1.48;;
62861;SDS011;48953;53.110;5.592;2023-09-19T06:57:19;8.05;;;1.55;;
62861;SDS011;48953;53.110;5.592;2023-09-19T06:59:45;5.40;;;1.00;;
62861;SDS011;48953;53.110;5.592;2023-09-19T07:02:11;6.28;;;1.15;;
62861;SDS011;48953;53.110;5.592;2023-09-19T07:04:38;7.03;;;1.30;;
62861;SDS011;48953;53.110;5.592;2023-09-19T07:07:05;7.28;;;1.60;;
62861;SDS011;48953;53.110;5.592;2023-09-19T07:09:33;8.45;;;1.33;;
62861;SDS011;48953;53.110;5.592;2023-09-19T07:11:59;4.00;;;1.02;;
62861;SDS011;48953;53.110;5.592;2023-09-19T07:14:26;8.13;;;1.17;;
62861;SDS011;48953;53.110;5.592;2023-09-19T07:16:52;7.30;;;1.60;;
62861;SDS011;48953;53.110;5.592;2023-09-19T07:19:19;10.43;;;2.47;;
62861;SDS011;48953;53.110;5.592;2023-09-19T07:21:45;9.05;;;1.73;;
62861;SDS011;48953;53.110;5.592;2023-09-19T07:24:12;8.75;;;1.27;;
62861;SDS011;48953;53.110;5.592;2023-09-19T07:26:38;13.98;;;2.00;;
62861;SDS011;48953;53.110;5.592;2023-09-19T07:29:05;7.93;;;1.60;;
62861;SDS011;48953;53.110;5.592;2023-09-19T07:31:31;5.60;;;1.17;;
62861;SDS011;48953;53.110;5.592;2023-09-19T07:33:58;7.00;;;1.42;;
62861;SDS011;48953;53.110;5.592;2023-09-19T07:36:24;6.10;;;1.30;;
62861;SDS011;48953;53.110;5.592;2023-09-19T07:38:50;9.32;;;1.70;;
62861;SDS011;48953;53.110;5.592;2023-09-19T07:41:16;7.35;;;1.30;;
62861;SDS011;48953;53.110;5.592;2023-09-19T07:43:43;8.95;;;1.70;;
62861;SDS011;48953;53.110;5.592;2023-09-19T07:46:09;8.00;;;1.60;;
62861;SDS011;48953;53.110;5.592;2023-09-19T07:48:36;7.32;;;1.80;;
62861;SDS011;48953;53.110;5.592;2023-09-19T07:51:03;8.18;;;2.00;;
62861;SDS011;48953;53.110;5.592;2023-09-19T07:53:29;4.82;;;1.00;;
62861;SDS011;48953;53.110;5.592;2023-09-19T07:56:05;6.47;;;2.00;;
62861;SDS011;48953;53.110;5.592;2023-09-19T07:58:31;9.18;;;1.48;;
62861;SDS011;48953;53.110;5.592;2023-09-19T08:01:08;9.30;;;1.60;;
62861;SDS011;48953;53.110;5.592;2023-09-19T08:03:35;6.32;;;1.33;;
62861;SDS011;48953;53.110;5.592;2023-09-19T08:06:06;5.25;;;1.38;;
62861;SDS011;48953;53.110;5.592;2023-09-19T08:08:32;5.88;;;1.90;;
62861;SDS011;48953;53.110;5.592;2023-09-19T08:11:02;9.95;;;1.55;;
62861;SDS011;48953;53.110;5.592;2023-09-19T08:13:35;9.20;;;1.73;;
62861;SDS011;48953;53.110;5.592;2023-09-19T08:16:02;8.45;;;1.77;;
62861;SDS011;48953;53.110;5.592;2023-09-19T08:18:28;6.03;;;1.15;;
62861;SDS011;48953;53.110;5.592;2023-09-19T08:20:55;7.60;;;1.65;;
62861;SDS011;48953;53.110;5.592;2023-09-19T08:23:24;6.65;;;1.55;;
62861;SDS011;48953;53.110;5.592;2023-09-19T08:25:56;6.00;;;1.20;;
62861;SDS011;48953;53.110;5.592;2023-09-19T08:28:23;10.02;;;1.65;;
62861;SDS011;48953;53.110;5.592;2023-09-19T08:30:49;5.82;;;1.63;;
62861;SDS011;48953;53.110;5.592;2023-09-19T08:33:16;8.80;;;1.73;;
62861;SDS011;48953;53.110;5.592;2023-09-19T08:35:42;8.80;;;1.48;;
62861;SDS011;48953;53.110;5.592;2023-09-19T08:38:10;8.27;;;1.90;;
62861;SDS011;48953;53.110;5.592;2023-09-19T08:40:37;5.80;;;1.63;;
62861;SDS011;48953;53.110;5.592;2023-09-19T08:43:04;9.60;;;2.05;;
62861;SDS011;48953;53.110;5.592;2023-09-19T08:45:32;7.57;;;2.10;;
62861;SDS011;48953;53.110;5.592;2023-09-19T08:50:28;7.45;;;1.77;;
62861;SDS011;48953;53.110;5.592;2023-09-19T08:52:55;8.73;;;1.98;;
62861;SDS011;48953;53.110;5.592;2023-09-19T08:55:27;7.40;;;1.42;;
62861;SDS011;48953;53.110;5.592;2023-09-19T08:57:58;6.45;;;1.80;;
62861;SDS011;48953;53.110;5.592;2023-09-19T09:00:25;7.43;;;1.50;;
62861;SDS011;48953;53.110;5.592;2023-09-19T09:02:52;8.50;;;1.48;;
62861;SDS011;48953;53.110;5.592;2023-09-19T09:05:19;7.13;;;1.70;;
62861;SDS011;48953;53.110;5.592;2023-09-19T09:07:48;9.05;;;1.67;;
62861;SDS011;48953;53.110;5.592;2023-09-19T09:10:19;6.75;;;1.77;;
62861;SDS011;48953;53.110;5.592;2023-09-19T09:12:52;7.50;;;1.58;;
62861;SDS011;48953;53.110;5.592;2023-09-19T09:15:20;8.63;;;2.00;;
62861;SDS011;48953;53.110;5.592;2023-09-19T09:17:48;9.48;;;2.08;;
62861;SDS011;48953;53.110;5.592;2023-09-19T09:20:15;8.13;;;1.95;;
62861;SDS011;48953;53.110;5.592;2023-09-19T09:22:54;4.78;;;1.80;;
62861;SDS011;48953;53.110;5.592;2023-09-19T09:25:20;8.80;;;1.80;;
62861;SDS011;48953;53.110;5.592;2023-09-19T09:30:33;6.85;;;1.80;;
62861;SDS011;48953;53.110;5.592;2023-09-19T09:33:12;9.77;;;2.08;;
62861;SDS011;48953;53.110;5.592;2023-09-19T09:35:48;7.97;;;1.73;;
62861;SDS011;48953;53.110;5.592;2023-09-19T09:38:21;10.27;;;1.97;;
62861;SDS011;48953;53.110;5.592;2023-09-19T09:40:52;9.20;;;2.58;;
62861;SDS011;48953;53.110;5.592;2023-09-19T09:43:31;7.97;;;2.35;;
62861;SDS011;48953;53.110;5.592;2023-09-19T09:46:08;6.40;;;1.75;;
62861;SDS011;48953;53.110;5.592;2023-09-19T09:49:07;4.10;;;1.50;;
62861;SDS011;48953;53.110;5.592;2023-09-19T09:52:02;4.80;;;1.65;;
62861;SDS011;48953;53.110;5.592;2023-09-19T09:54:57;6.60;;;1.70;;
62861;SDS011;48953;53.110;5.592;2023-09-19T09:57:24;11.65;;;2.15;;
62861;SDS011;48953;53.110;5.592;2023-09-19T09:59:54;5.90;;;1.48;;
62861;SDS011;48953;53.110;5.592;2023-09-19T10:02:27;8.15;;;1.65;;
62861;SDS011;48953;53.110;5.592;2023-09-19T10:05:11;6.85;;;1.58;;
62861;SDS011;48953;53.110;5.592;2023-09-19T10:07:48;7.10;;;1.52;;
62861;SDS011;48953;53.110;5.592;2023-09-19T10:13:09;9.05;;;2.08;;
62861;SDS011;48953;53.110;5.592;2023-09-19T10:15:38;9.20;;;1.35;;
62861;SDS011;48953;53.110;5.592;2023-09-19T10:18:13;11.23;;;2.08;;
62861;SDS011;48953;53.110;5.592;2023-09-19T10:20:43;8.77;;;2.05;;
62861;SDS011;48953;53.110;5.592;2023-09-19T10:23:11;9.98;;;1.65;;
62861;SDS011;48953;53.110;5.592;2023-09-19T10:25:42;7.20;;;1.98;;
62861;SDS011;48953;53.110;5.592;2023-09-19T10:28:12;11.15;;;1.90;;
62861;SDS011;48953;53.110;5.592;2023-09-19T10:30:45;11.32;;;2.03;;
62861;SDS011;48953;53.110;5.592;2023-09-19T10:33:21;11.73;;;2.10;;
62861;SDS011;48953;53.110;5.592;2023-09-19T10:35:51;8.75;;;1.70;;
62861;SDS011;48953;53.110;5.592;2023-09-19T10:38:17;7.30;;;2.00;;
62861;SDS011;48953;53.110;5.592;2023-09-19T10:40:50;7.53;;;2.28;;
62861;SDS011;48953;53.110;5.592;2023-09-19T10:43:17;8.63;;;2.30;;
62861;SDS011;48953;53.110;5.592;2023-09-19T10:45:43;10.15;;;2.30;;
62861;SDS011;48953;53.110;5.592;2023-09-19T10:48:10;8.65;;;1.88;;
62861;SDS011;48953;53.110;5.592;2023-09-19T10:50:41;10.27;;;2.35;;
62861;SDS011;48953;53.110;5.592;2023-09-19T10:53:10;7.40;;;2.40;;
62861;SDS011;48953;53.110;5.592;2023-09-19T10:55:37;7.75;;;1.92;;
62861;SDS011;48953;53.110;5.592;2023-09-19T10:58:04;9.45;;;2.10;;
62861;SDS011;48953;53.110;5.592;2023-09-19T11:00:49;9.63;;;2.00;;
62861;SDS011;48953;53.110;5.592;2023-09-19T11:06:01;6.97;;;2.03;;
62861;SDS011;48953;53.110;5.592;2023-09-19T11:11:58;9.10;;;2.60;;
62861;SDS011;48953;53.110;5.592;2023-09-19T11:14:15;10.65;;;2.85;;
62861;SDS011;48953;53.110;5.592;2023-09-19T11:17:23;5.95;;;2.33;;
62861;SDS011;48953;53.110;5.592;2023-09-19T11:22:13;8.93;;;2.53;;
62861;SDS011;48953;53.110;5.592;2023-09-19T11:24:39;10.32;;;2.40;;
62861;SDS011;48953;53.110;5.592;2023-09-19T11:27:10;9.15;;;2.35;;
62861;SDS011;48953;53.110;5.592;2023-09-19T11:29:38;8.45;;;2.75;;
62861;SDS011;48953;53.110;5.592;2023-09-19T11:32:05;13.95;;;2.80;;
62861;SDS011;48953;53.110;5.592;2023-09-19T11:42:44;10.20;;;2.20;;
62861;SDS011;48953;53.110;5.592;2023-09-19T11:47:57;8.20;;;2.58;;
62861;SDS011;48953;53.110;5.592;2023-09-19T11:50:25;10.63;;;2.25;;
62861;SDS011;48953;53.110;5.592;2023-09-19T11:52:51;8.60;;;2.08;;
62861;SDS011;48953;53.110;5.592;2023-09-19T11:55:20;6.90;;;1.70;;
62861;SDS011;48953;53.110;5.592;2023-09-19T11:57:47;7.97;;;1.80;;
62861;SDS011;48953;53.110;5.592;2023-09-19T12:00:19;6.05;;;1.80;;
62861;SDS011;48953;53.110;5.592;2023-09-19T12:02:47;8.50;;;2.15;;
62861;SDS011;48953;53.110;5.592;2023-09-19T12:05:27;5.25;;;1.70;;
62861;SDS011;48953;53.110;5.592;2023-09-19T12:07:53;8.02;;;1.83;;
62861;SDS011;48953;53.110;5.592;2023-09-19T12:10:19;5.88;;;1.75;;
62861;SDS011;48953;53.110;5.592;2023-09-19T12:12:48;8.77;;;1.60;;
62861;SDS011;48953;53.110;5.592;2023-09-19T12:15:15;8.38;;;2.13;;
62861;SDS011;48953;53.110;5.592;2023-09-19T12:17:41;7.03;;;1.67;;
62861;SDS011;48953;53.110;5.592;2023-09-19T12:20:08;9.95;;;1.98;;
62861;SDS011;48953;53.110;5.592;2023-09-19T12:25:08;6.57;;;1.50;;
62861;SDS011;48953;53.110;5.592;2023-09-19T12:27:42;4.57;;;1.58;;
62861;SDS011;48953;53.110;5.592;2023-09-19T12:30:09;4.40;;;1.50;;
62861;SDS011;48953;53.110;5.592;2023-09-19T12:32:39;5.22;;;1.73;;
62861;SDS011;48953;53.110;5.592;2023-09-19T12:35:09;5.95;;;2.05;;
62861;SDS011;48953;53.110;5.592;2023-09-19T12:37:45;6.45;;;1.80;;
62861;SDS011;48953;53.110;5.592;2023-09-19T12:40:18;5.53;;;1.98;;
62861;SDS011;48953;53.110;5.592;2023-09-19T12:42:47;4.28;;;2.00;;
62861;SDS011;48953;53.110;5.592;2023-09-19T12:45:13;5.13;;;1.60;;
62861;SDS011;48953;53.110;5.592;2023-09-19T12:48:17;4.95;;;1.88;;
62861;SDS011;48953;53.110;5.592;2023-09-19T12:50:27;5.88;;;1.60;;
62861;SDS011;48953;53.110;5.592;2023-09-19T12:52:55;4.80;;;1.80;;
62861;SDS011;48953;53.110;5.592;2023-09-19T12:55:25;7.75;;;2.22;;
62861;SDS011;48953;53.110;5.592;2023-09-19T12:58:11;6.60;;;1.95;;
62861;SDS011;48953;53.110;5.592;2023-09-19T13:00:38;7.35;;;1.77;;
62861;SDS011;48953;53.110;5.592;2023-09-19T13:04:09;5.13;;;2.10;;
62861;SDS011;48953;53.110;5.592;2023-09-19T13:08:31;9.07;;;1.92;;
62861;SDS011;48953;53.110;5.592;2023-09-19T13:11:02;7.82;;;2.15;;
62861;SDS011;48953;53.110;5.592;2023-09-19T13:15:54;5.80;;;1.80;;
62861;SDS011;48953;53.110;5.592;2023-09-19T13:18:23;4.38;;;1.73;;
62861;SDS011;48953;53.110;5.592;2023-09-19T13:21:06;7.85;;;2.03;;
62861;SDS011;48953;53.110;5.592;2023-09-19T13:23:37;6.35;;;1.80;;
62861;SDS011;48953;53.110;5.592;2023-09-19T13:26:05;6.95;;;1.98;;
62861;SDS011;48953;53.110;5.592;2023-09-19T13:28:31;8.13;;;1.98;;
62861;SDS011;48953;53.110;5.592;2023-09-19T13:30:58;6.00;;;1.85;;
62861;SDS011;48953;53.110;5.592;2023-09-19T13:33:24;8.32;;;2.25;;
62861;SDS011;48953;53.110;5.592;2023-09-19T13:35:51;7.43;;;2.13;;
62861;SDS011;48953;53.110;5.592;2023-09-19T13:38:18;9.40;;;1.80;;
62861;SDS011;48953;53.110;5.592;2023-09-19T13:40:47;4.33;;;1.70;;
62861;SDS011;48953;53.110;5.592;2023-09-19T13:43:13;7.93;;;2.05;;
62861;SDS011;48953;53.110;5.592;2023-09-19T13:45:40;7.68;;;2.40;;
62861;SDS011;48953;53.110;5.592;2023-09-19T13:50:38;6.57;;;2.05;;
62861;SDS011;48953;53.110;5.592;2023-09-19T13:53:07;6.72;;;1.65;;
62861;SDS011;48953;53.110;5.592;2023-09-19T13:55:34;9.77;;;2.65;;
62861;SDS011;48953;53.110;5.592;2023-09-19T13:58:00;8.70;;;2.30;;
62861;SDS011;48953;53.110;5.592;2023-09-19T14:00:26;4.50;;;2.05;;
62861;SDS011;48953;53.110;5.592;2023-09-19T14:02:53;8.27;;;2.50;;
62861;SDS011;48953;53.110;5.592;2023-09-19T14:05:19;9.02;;;2.40;;
62861;SDS011;48953;53.110;5.592;2023-09-19T14:07:45;9.88;;;2.42;;
62861;SDS011;48953;53.110;5.592;2023-09-19T14:10:12;7.25;;;1.88;;
62861;SDS011;48953;53.110;5.592;2023-09-19T14:12:38;11.00;;;2.80;;
62861;SDS011;48953;53.110;5.592;2023-09-19T14:15:09;12.45;;;2.90;;
62861;SDS011;48953;53.110;5.592;2023-09-19T14:17:35;8.43;;;2.60;;
62861;SDS011;48953;53.110;5.592;2023-09-19T14:20:01;8.85;;;2.30;;
62861;SDS011;48953;53.110;5.592;2023-09-19T14:22:28;10.38;;;3.00;;
62861;SDS011;48953;53.110;5.592;2023-09-19T14:24:54;11.88;;;2.97;;
62861;SDS011;48953;53.110;5.592;2023-09-19T14:27:20;12.50;;;2.72;;
62861;SDS011;48953;53.110;5.592;2023-09-19T14:29:46;9.27;;;2.88;;
62861;SDS011;48953;53.110;5.592;2023-09-19T14:32:12;8.05;;;2.80;;
62861;SDS011;48953;53.110;5.592;2023-09-19T14:34:38;10.40;;;2.78;;
62861;SDS011;48953;53.110;5.592;2023-09-19T14:37:08;9.45;;;2.83;;
62861;SDS011;48953;53.110;5.592;2023-09-19T14:39:34;14.52;;;3.58;;
62861;SDS011;48953;53.110;5.592;2023-09-19T14:42:00;15.60;;;3.97;;
62861;SDS011;48953;53.110;5.592;2023-09-19T14:44:26;9.38;;;2.28;;
62861;SDS011;48953;53.110;5.592;2023-09-19T14:46:53;9.90;;;3.13;;
62861;SDS011;48953;53.110;5.592;2023-09-19T14:49:19;10.35;;;2.58;;
62861;SDS011;48953;53.110;5.592;2023-09-19T14:51:46;10.15;;;2.55;;
62861;SDS011;48953;53.110;5.592;2023-09-19T14:54:13;13.27;;;2.85;;
62861;SDS011;48953;53.110;5.592;2023-09-19T14:56:42;11.77;;;2.30;;
62861;SDS011;48953;53.110;5.592;2023-09-19T14:59:08;11.57;;;3.05;;
62861;SDS011;48953;53.110;5.592;2023-09-19T15:01:36;17.73;;;3.53;;
62861;SDS011;48953;53.110;5.592;2023-09-19T15:04:03;13.35;;;3.13;;
62861;SDS011;48953;53.110;5.592;2023-09-19T15:06:29;12.75;;;3.10;;
62861;SDS011;48953;53.110;5.592;2023-09-19T15:08:55;10.95;;;2.95;;
62861;SDS011;48953;53.110;5.592;2023-09-19T15:11:22;14.73;;;2.83;;
62861;SDS011;48953;53.110;5.592;2023-09-19T15:13:50;12.25;;;3.30;;
62861;SDS011;48953;53.110;5.592;2023-09-19T15:16:16;15.20;;;3.20;;
62861;SDS011;48953;53.110;5.592;2023-09-19T15:18:43;17.05;;;4.15;;
62861;SDS011;48953;53.110;5.592;2023-09-19T15:21:12;17.23;;;3.13;;
62861;SDS011;48953;53.110;5.592;2023-09-19T15:23:40;14.98;;;3.67;;
62861;SDS011;48953;53.110;5.592;2023-09-19T15:26:06;15.35;;;3.45;;
62861;SDS011;48953;53.110;5.592;2023-09-19T15:28:33;19.50;;;3.63;;
62861;SDS011;48953;53.110;5.592;2023-09-19T15:31:09;14.32;;;4.10;;
62861;SDS011;48953;53.110;5.592;2023-09-19T15:33:36;14.82;;;4.78;;
62861;SDS011;48953;53.110;5.592;2023-09-19T15:36:06;20.90;;;5.05;;
62861;SDS011;48953;53.110;5.592;2023-09-19T15:38:50;14.23;;;3.40;;
62861;SDS011;48953;53.110;5.592;2023-09-19T15:41:19;17.13;;;4.40;;
62861;SDS011;48953;53.110;5.592;2023-09-19T15:43:45;18.40;;;4.45;;
62861;SDS011;48953;53.110;5.592;2023-09-19T15:46:11;19.48;;;4.53;;
62861;SDS011;48953;53.110;5.592;2023-09-19T15:48:38;15.98;;;3.67;;